Terminal Aerodrome Forecast
Issued by NWS Louisville, KY

Home | Current Version | Previous Version | Text Only | Print | Product List | Glossary On
Versions: 1 2 3 4 5 6 7 8 9 10 11 12 13 14
000
FTUS43 KLMK 191300 AAA
TAFSDF
TAF AMD
KSDF 191313Z 1913/2018 11008KT 4SM -SHRA BR SCT008 OVC025
     FM191800 15012G21KT P6SM VCSH BKN015
     FM192100 21012G22KT P6SM VCTS BKN015CB
     FM200000 23010KT P6SM VCSH BKN025=

USA.gov is the U.S. government's official web portal to all federal, state and local government web resources and services.